createdAt,value
2024-02-02T00:01:32.256Z,17.40
2024-02-02T00:04:14.775Z,19.77
2024-02-02T00:06:57.443Z,20.20
2024-02-02T00:09:40.303Z,23.10
2024-02-02T00:12:23.094Z,17.88
2024-02-02T00:15:06.025Z,15.05
2024-02-02T00:17:48.879Z,16.20
2024-02-02T00:20:31.268Z,18.00
2024-02-02T00:23:13.941Z,14.70
2024-02-02T00:25:56.260Z,16.05
2024-02-02T00:28:39.247Z,22.00
2024-02-02T00:31:23.276Z,16.15
2024-02-02T00:34:06.026Z,12.82
2024-02-02T00:36:48.614Z,20.75
2024-02-02T00:39:31.474Z,14.98
2024-02-02T00:42:14.084Z,14.70
2024-02-02T00:44:58.777Z,18.35
2024-02-02T00:47:41.279Z,18.05
2024-02-02T00:50:23.952Z,13.88
2024-02-02T00:53:06.330Z,13.52
2024-02-02T00:55:49.123Z,18.02
2024-02-02T00:58:31.485Z,10.35
2024-02-02T01:01:14.154Z,14.93
2024-02-02T01:03:56.542Z,19.30
2024-02-02T01:06:39.332Z,15.00
2024-02-02T01:09:21.824Z,14.82
2024-02-02T01:12:04.788Z,12.80
2024-02-02T01:14:47.860Z,14.98
2024-02-02T01:17:30.965Z,17.95
2024-02-02T01:20:15.143Z,17.73
2024-02-02T01:22:58.095Z,19.10
2024-02-02T01:25:40.429Z,16.27
2024-02-02T01:28:23.097Z,14.25
2024-02-02T01:31:05.649Z,17.10
2024-02-02T01:33:48.380Z,13.05
2024-02-02T01:36:31.026Z,14.13
2024-02-02T01:39:14.516Z,15.57
2024-02-02T01:41:57.017Z,17.98
2024-02-02T01:44:39.991Z,15.98
2024-02-02T01:47:22.458Z,11.93
2024-02-02T01:50:05.694Z,14.43
2024-02-02T01:52:48.148Z,16.65
2024-02-02T01:55:31.014Z,17.02
2024-02-02T01:58:13.419Z,15.55
2024-02-02T02:00:56.135Z,21.50
2024-02-02T02:03:38.875Z,25.27
2024-02-02T02:06:21.698Z,17.42
2024-02-02T02:09:04.216Z,15.25
2024-02-02T02:11:46.893Z,12.18
2024-02-02T02:14:30.477Z,14.10
2024-02-02T02:17:13.188Z,19.92
2024-02-02T02:19:59.588Z,17.95
2024-02-02T02:22:42.236Z,15.43
2024-02-02T02:25:24.507Z,16.30
2024-02-02T02:28:07.191Z,22.85
2024-02-02T02:30:49.540Z,23.77
2024-02-02T02:33:32.600Z,20.27
2024-02-02T02:36:15.570Z,19.75
2024-02-02T02:38:58.488Z,18.65
2024-02-02T02:41:40.858Z,16.75
2024-02-02T02:44:23.510Z,15.75
2024-02-02T02:47:06.156Z,21.65
2024-02-02T02:49:48.828Z,17.25
2024-02-02T02:52:31.279Z,19.00
2024-02-02T02:55:13.920Z,16.08
2024-02-02T02:57:56.385Z,12.57
2024-02-02T03:00:39.028Z,15.35
2024-02-02T03:03:21.550Z,15.95
2024-02-02T03:06:04.679Z,19.65
2024-02-02T03:08:47.082Z,15.02
2024-02-02T03:11:30.163Z,18.00
2024-02-02T03:14:12.490Z,17.20
2024-02-02T03:16:55.224Z,15.10
2024-02-02T03:19:38.521Z,19.60
2024-02-02T03:22:21.577Z,19.38
2024-02-02T03:25:04.080Z,18.08
2024-02-02T03:27:46.968Z,17.20
2024-02-02T03:30:29.414Z,23.45
2024-02-02T03:33:12.154Z,19.08
2024-02-02T03:35:54.527Z,17.88
2024-02-02T03:38:37.367Z,17.92
2024-02-02T03:41:19.856Z,20.77
2024-02-02T03:44:02.542Z,19.42
2024-02-02T03:46:44.789Z,16.23
2024-02-02T03:49:27.500Z,24.42
2024-02-02T03:52:09.867Z,18.88
2024-02-02T03:54:52.726Z,20.17
2024-02-02T03:57:35.620Z,22.30
2024-02-02T04:00:18.689Z,22.25
2024-02-02T04:03:01.132Z,16.00
2024-02-02T04:05:44.019Z,22.08
2024-02-02T04:08:26.873Z,20.63
2024-02-02T04:11:09.673Z,16.60
2024-02-02T04:13:52.048Z,24.67
2024-02-02T04:16:34.833Z,19.08
2024-02-02T04:19:19.451Z,18.65
2024-02-02T04:22:02.248Z,21.90
2024-02-02T04:24:45.225Z,22.80
2024-02-02T04:27:28.071Z,19.70
2024-02-02T04:30:11.009Z,23.60
2024-02-02T04:32:53.784Z,15.60
2024-02-02T04:35:36.504Z,21.50
2024-02-02T04:38:19.260Z,21.88
2024-02-02T04:41:01.535Z,21.98
2024-02-02T04:43:44.136Z,19.80
2024-02-02T04:46:26.434Z,23.80
2024-02-02T04:49:09.235Z,23.98
2024-02-02T04:51:51.819Z,25.17
2024-02-02T04:54:35.756Z,21.00
2024-02-02T04:57:18.467Z,17.17
2024-02-02T05:00:01.158Z,19.80
2024-02-02T05:02:43.745Z,20.33
2024-02-02T05:05:26.792Z,19.13
2024-02-02T05:08:09.841Z,21.70
2024-02-02T05:10:52.514Z,16.85
2024-02-02T05:13:34.819Z,17.80
2024-02-02T05:16:17.479Z,16.50
2024-02-02T05:19:00.001Z,18.25
2024-02-02T05:21:43.596Z,22.45
2024-02-02T05:24:38.280Z,16.65
2024-02-02T05:27:27.832Z,15.30
2024-02-02T05:30:10.721Z,19.80
2024-02-02T05:32:53.524Z,15.60
2024-02-02T05:35:35.877Z,16.65
2024-02-02T05:38:18.513Z,21.75
2024-02-02T05:41:00.976Z,17.25
2024-02-02T05:43:43.885Z,15.68
2024-02-02T05:46:26.251Z,19.70
2024-02-02T05:49:09.127Z,26.02
2024-02-02T05:51:52.689Z,14.15
2024-02-02T05:54:37.140Z,17.80
2024-02-02T05:57:19.784Z,19.45
2024-02-02T06:00:02.718Z,19.95
2024-02-02T06:02:48.006Z,20.38
2024-02-02T06:05:34.083Z,21.25
2024-02-02T06:08:16.862Z,22.70
2024-02-02T06:10:59.761Z,16.85
2024-02-02T06:13:42.248Z,23.85
2024-02-02T06:16:27.019Z,16.88
2024-02-02T06:19:09.610Z,22.67
2024-02-02T06:21:52.439Z,23.92
2024-02-02T06:24:35.841Z,20.95
2024-02-02T06:27:23.566Z,20.40
2024-02-02T06:30:08.818Z,27.80
2024-02-02T06:33:00.993Z,17.65
2024-02-02T06:35:45.606Z,20.67
2024-02-02T06:38:28.396Z,16.55
2024-02-02T06:41:12.214Z,24.38
2024-02-02T06:43:54.866Z,21.98
2024-02-02T06:46:37.326Z,22.85
2024-02-02T06:49:20.355Z,20.73
2024-02-02T06:52:03.405Z,21.98
2024-02-02T06:54:46.178Z,19.70
2024-02-02T06:57:32.919Z,25.40
2024-02-02T07:00:16.842Z,18.88
2024-02-02T07:02:59.828Z,20.38
2024-02-02T07:05:45.321Z,27.60
2024-02-02T07:08:27.987Z,18.27
2024-02-02T07:11:13.907Z,19.67
2024-02-02T07:13:56.398Z,20.10
2024-02-02T07:16:39.193Z,25.42
2024-02-02T07:19:42.072Z,37.03
2024-02-02T07:22:53.970Z,29.20
2024-02-02T07:25:41.812Z,23.63
2024-02-02T07:28:37.322Z,32.60
2024-02-02T07:31:37.970Z,23.90
2024-02-02T07:34:42.948Z,20.55
2024-02-02T07:37:48.536Z,22.52
2024-02-02T07:40:31.205Z,30.27
2024-02-02T07:43:13.548Z,16.95
2024-02-02T07:45:56.390Z,20.85
2024-02-02T07:48:39.389Z,21.52
2024-02-02T07:51:24.081Z,24.60
2024-02-02T07:54:06.554Z,24.35
2024-02-02T07:56:49.324Z,29.38
2024-02-02T07:59:32.084Z,29.85
2024-02-02T08:02:14.884Z,35.55
2024-02-02T08:04:57.561Z,29.05
2024-02-02T08:07:40.377Z,32.70
2024-02-02T08:10:22.769Z,37.90
2024-02-02T08:13:05.673Z,24.35
2024-02-02T08:15:48.067Z,26.13
2024-02-02T08:18:31.272Z,20.30
2024-02-02T08:21:13.958Z,28.88
2024-02-02T08:23:56.700Z,28.40
2024-02-02T08:26:39.135Z,24.88
2024-02-02T08:29:21.927Z,27.08
2024-02-02T08:32:06.888Z,22.83
2024-02-02T08:34:49.640Z,21.52
2024-02-02T08:37:32.233Z,24.20
2024-02-02T08:40:32.048Z,25.13
2024-02-02T08:43:21.031Z,26.20
2024-02-02T08:46:11.878Z,24.33
2024-02-02T08:48:56.508Z,35.00
2024-02-02T08:51:52.475Z,23.80
2024-02-02T08:54:44.085Z,24.17
2024-02-02T08:57:52.828Z,31.83
2024-02-02T09:00:50.466Z,21.10
2024-02-02T09:03:48.226Z,21.50
2024-02-02T09:06:30.847Z,21.65
2024-02-02T09:09:16.009Z,29.45
2024-02-02T09:12:06.015Z,29.80
2024-02-02T09:14:48.737Z,21.88
2024-02-02T09:17:31.869Z,25.25
2024-02-02T09:20:38.728Z,27.67
2024-02-02T09:23:21.336Z,24.45
2024-02-02T09:26:13.278Z,29.30
2024-02-02T09:28:58.107Z,35.80
2024-02-02T09:31:40.829Z,24.42
2024-02-02T09:34:26.514Z,29.17
2024-02-02T09:37:23.655Z,28.33
2024-02-02T09:40:41.051Z,24.83
2024-02-02T09:43:45.277Z,21.55
2024-02-02T09:46:45.527Z,21.88
2024-02-02T09:49:45.780Z,24.10
2024-02-02T09:52:59.016Z,28.90
2024-02-02T09:56:07.063Z,33.53
2024-02-02T09:59:31.029Z,26.67
2024-02-02T10:03:00.957Z,19.65
2024-02-02T10:05:53.365Z,26.63
2024-02-02T10:08:36.170Z,22.85
2024-02-02T10:11:37.163Z,19.23
2024-02-02T10:14:51.010Z,23.98
2024-02-02T10:18:05.051Z,22.17
2024-02-02T10:21:28.871Z,24.33
2024-02-02T10:24:18.299Z,15.20
2024-02-02T10:27:26.481Z,19.45
2024-02-02T10:30:21.186Z,21.80
2024-02-02T10:33:13.514Z,22.90
2024-02-02T10:35:59.117Z,19.15
2024-02-02T10:38:58.073Z,30.10
2024-02-02T10:42:15.853Z,22.63
2024-02-02T10:45:26.411Z,27.13
2024-02-02T10:48:41.176Z,24.98
2024-02-02T10:51:55.632Z,20.13
2024-02-02T10:55:12.513Z,19.65
2024-02-02T10:58:33.482Z,21.13
2024-02-02T11:01:35.855Z,17.30
2024-02-02T11:04:28.450Z,21.23
2024-02-02T11:07:22.967Z,20.80
2024-02-02T11:10:12.055Z,17.63
2024-02-02T11:13:17.449Z,19.65
2024-02-02T11:16:26.409Z,18.42
2024-02-02T11:19:25.405Z,23.88
2024-02-02T11:22:39.128Z,23.40
2024-02-02T11:25:22.546Z,21.95
2024-02-02T11:28:14.814Z,16.75
2024-02-02T11:31:26.533Z,23.42
2024-02-02T11:34:34.937Z,22.60
2024-02-02T11:38:09.933Z,21.48
2024-02-02T11:40:54.108Z,22.27
2024-02-02T11:43:37.108Z,22.25
2024-02-02T11:46:25.387Z,23.48
2024-02-02T11:49:10.833Z,21.10
2024-02-02T11:52:05.936Z,26.27
2024-02-02T11:55:29.501Z,26.65
2024-02-02T11:58:13.177Z,19.05
2024-02-02T12:01:09.754Z,24.92
2024-02-02T12:04:23.733Z,20.08
2024-02-02T12:07:33.793Z,13.60
2024-02-02T12:10:23.297Z,14.50
2024-02-02T12:13:07.820Z,24.80
2024-02-02T12:15:54.006Z,14.93
2024-02-02T12:18:38.709Z,25.17
2024-02-02T12:21:22.434Z,24.63
2024-02-02T12:24:05.398Z,21.38
2024-02-02T12:26:49.610Z,19.92
2024-02-02T12:29:33.185Z,22.20
2024-02-02T12:32:16.024Z,36.13
2024-02-02T12:34:58.912Z,23.30
2024-02-02T12:37:46.181Z,14.38
2024-02-02T12:40:28.851Z,24.38
2024-02-02T12:43:11.545Z,17.95
2024-02-02T12:45:56.921Z,25.27
2024-02-02T12:48:39.690Z,26.27
2024-02-02T12:51:22.611Z,18.90
2024-02-02T12:54:07.017Z,24.65
2024-02-02T12:56:49.743Z,17.75
2024-02-02T12:59:33.430Z,20.52
2024-02-02T13:02:17.611Z,24.90
2024-02-02T13:05:01.767Z,28.60
2024-02-02T13:07:49.100Z,18.05
2024-02-02T13:10:48.845Z,17.08
2024-02-02T13:13:34.814Z,18.70
2024-02-02T13:16:30.983Z,18.75
2024-02-02T13:19:35.059Z,21.55
2024-02-02T13:22:30.393Z,18.98
2024-02-02T13:25:12.977Z,26.27
2024-02-02T13:27:55.979Z,18.40
2024-02-02T13:30:38.763Z,18.70
2024-02-02T13:33:21.935Z,33.67
2024-02-02T13:36:10.843Z,29.77
2024-02-02T13:38:56.840Z,22.40
2024-02-02T13:41:40.835Z,19.93
2024-02-02T13:44:24.588Z,23.15
2024-02-02T13:47:13.862Z,32.10
2024-02-02T13:50:01.136Z,25.38
2024-02-02T13:52:50.257Z,30.65
2024-02-02T13:55:34.943Z,22.27
2024-02-02T13:58:17.738Z,32.90
2024-02-02T14:01:11.340Z,33.03
2024-02-02T14:03:55.675Z,26.45
2024-02-02T14:06:39.353Z,28.98
2024-02-02T14:09:26.887Z,29.63
2024-02-02T14:12:10.253Z,32.03
2024-02-02T14:14:53.008Z,27.48
2024-02-02T14:17:36.193Z,28.08
2024-02-02T14:20:25.219Z,32.35
2024-02-02T14:23:12.220Z,34.80
2024-02-02T14:25:54.570Z,33.78
2024-02-02T14:28:37.906Z,38.63
2024-02-02T14:31:21.852Z,40.95
2024-02-02T14:34:04.979Z,29.42
2024-02-02T14:36:47.570Z,24.83
2024-02-02T14:39:32.534Z,26.23
2024-02-02T14:42:15.489Z,26.50
2024-02-02T14:45:00.582Z,30.77
2024-02-02T14:47:45.779Z,23.75
2024-02-02T14:50:29.394Z,31.27
2024-02-02T14:53:11.858Z,30.73
2024-02-02T14:55:55.001Z,28.20
2024-02-02T14:58:37.769Z,36.88
2024-02-02T15:01:22.738Z,33.10
2024-02-02T15:04:09.748Z,32.20
2024-02-02T15:06:53.700Z,30.23
2024-02-02T15:09:37.402Z,31.35
2024-02-02T15:12:20.707Z,29.95
2024-02-02T15:15:03.588Z,29.25
2024-02-02T15:17:46.640Z,36.33
2024-02-02T15:20:29.241Z,26.50
2024-02-02T15:23:12.844Z,33.42
2024-02-02T15:25:55.400Z,28.55
2024-02-02T15:28:39.787Z,31.48
2024-02-02T15:31:22.947Z,36.85
2024-02-02T15:34:08.064Z,33.97
2024-02-02T15:36:51.277Z,36.92
2024-02-02T15:39:38.528Z,45.50
2024-02-02T15:42:22.050Z,39.47
2024-02-02T15:45:06.467Z,33.58
2024-02-02T15:47:51.868Z,41.03
2024-02-02T15:50:35.106Z,41.90
2024-02-02T15:53:19.618Z,39.90
2024-02-02T15:56:02.765Z,41.83
2024-02-02T15:58:45.372Z,38.85
2024-02-02T16:01:28.551Z,37.17
2024-02-02T16:04:11.099Z,32.70
2024-02-02T16:07:04.211Z,33.72
2024-02-02T16:09:46.748Z,31.08
2024-02-02T16:12:29.441Z,35.47
2024-02-02T16:15:14.826Z,37.38
2024-02-02T16:17:58.129Z,37.53
2024-02-02T16:20:40.767Z,27.63
2024-02-02T16:23:25.213Z,28.30
2024-02-02T16:26:08.126Z,32.80
2024-02-02T16:28:50.839Z,28.60
2024-02-02T16:31:33.242Z,30.27
2024-02-02T16:34:16.506Z,28.98
2024-02-02T16:36:59.060Z,24.95
2024-02-02T16:39:41.876Z,29.77
2024-02-02T16:42:24.535Z,27.75
2024-02-02T16:45:09.176Z,26.90
2024-02-02T16:47:54.270Z,26.52
2024-02-02T16:50:38.209Z,25.30
2024-02-02T16:53:20.803Z,41.20
2024-02-02T16:56:03.602Z,45.72
2024-02-02T16:58:47.349Z,45.85
2024-02-02T17:01:35.583Z,43.13
2024-02-02T17:04:18.351Z,30.88
2024-02-02T17:07:01.653Z,40.35
2024-02-02T17:09:47.214Z,26.70
2024-02-02T17:12:30.328Z,29.20
2024-02-02T17:15:13.344Z,30.58
2024-02-02T17:17:56.555Z,37.88
2024-02-02T17:20:38.967Z,38.38
2024-02-02T17:23:21.753Z,31.50
2024-02-02T17:26:04.307Z,30.60
2024-02-02T17:28:47.450Z,33.10
2024-02-02T17:31:29.738Z,31.63
2024-02-02T17:34:12.767Z,37.45
2024-02-02T17:36:55.293Z,33.38
2024-02-02T17:39:40.127Z,38.40
2024-02-02T17:42:22.612Z,43.47
2024-02-02T17:45:05.796Z,30.52
2024-02-02T17:47:48.425Z,35.58
2024-02-02T17:50:31.276Z,39.25
2024-02-02T17:53:14.029Z,37.58
2024-02-02T17:55:56.655Z,35.88
2024-02-02T17:58:39.501Z,41.25
2024-02-02T18:01:23.822Z,40.28
2024-02-02T18:04:06.430Z,35.08
2024-02-02T18:06:49.175Z,40.20
2024-02-02T18:09:32.305Z,29.33
2024-02-02T18:12:15.392Z,35.13
2024-02-02T18:14:57.909Z,32.90
2024-02-02T18:17:41.664Z,39.55
2024-02-02T18:20:24.040Z,33.53
2024-02-02T18:23:07.213Z,33.20
2024-02-02T18:25:49.603Z,78.70
2024-02-02T18:28:32.619Z,50.90
2024-02-02T18:31:15.028Z,28.48
2024-02-02T18:33:57.821Z,36.35
2024-02-02T18:36:43.918Z,34.03
2024-02-02T18:39:26.673Z,35.28
2024-02-02T18:42:09.729Z,102.45
2024-02-02T18:44:52.444Z,59.42
2024-02-02T18:47:35.539Z,30.20
2024-02-02T18:50:19.473Z,67.28
2024-02-02T18:53:01.812Z,72.85
2024-02-02T18:55:46.153Z,32.80
2024-02-02T18:58:35.754Z,57.00
2024-02-02T19:01:33.692Z,41.17
2024-02-02T19:04:16.353Z,60.00
2024-02-02T19:06:59.111Z,43.30
2024-02-02T19:09:41.519Z,34.92
2024-02-02T19:12:24.299Z,38.30
2024-02-02T19:15:08.031Z,61.78
2024-02-02T19:17:51.132Z,25.00
2024-02-02T19:20:35.380Z,31.52
2024-02-02T19:23:18.098Z,46.05
2024-02-02T19:26:04.593Z,40.95
2024-02-02T19:28:47.532Z,32.17
2024-02-02T19:31:33.104Z,37.58
2024-02-02T19:34:15.985Z,49.88
2024-02-02T19:36:59.013Z,46.95
2024-02-02T19:39:41.993Z,37.50
2024-02-02T19:42:24.505Z,41.10
2024-02-02T19:45:07.525Z,32.47
2024-02-02T19:47:50.046Z,29.67
2024-02-02T19:50:32.683Z,40.03
2024-02-02T19:53:15.068Z,35.90
2024-02-02T19:55:57.757Z,26.42
2024-02-02T19:58:41.724Z,31.00
2024-02-02T20:01:27.311Z,33.72
2024-02-02T20:04:09.943Z,29.52
2024-02-02T20:06:52.817Z,39.33
2024-02-02T20:09:36.173Z,32.15
2024-02-02T20:12:19.063Z,34.28
2024-02-02T20:15:01.428Z,30.17
2024-02-02T20:17:44.431Z,35.05
2024-02-02T20:20:29.684Z,29.95
2024-02-02T20:23:12.471Z,33.47
2024-02-02T20:25:54.782Z,35.83
2024-02-02T20:28:37.407Z,85.60
2024-02-02T20:31:20.123Z,132.68
2024-02-02T20:34:03.057Z,74.72
2024-02-02T20:36:46.164Z,55.75
2024-02-02T20:39:33.666Z,46.83
2024-02-02T20:42:16.689Z,76.63
2024-02-02T20:45:01.464Z,71.13
2024-02-02T20:47:45.717Z,64.20
2024-02-02T20:50:28.795Z,57.65
2024-02-02T20:53:11.233Z,58.70
2024-02-02T20:55:56.038Z,58.10
2024-02-02T20:58:38.572Z,47.35
2024-02-02T21:01:21.533Z,56.70
2024-02-02T21:04:04.186Z,48.85
2024-02-02T21:06:47.101Z,45.63
2024-02-02T21:09:31.357Z,50.38
2024-02-02T21:12:14.248Z,44.05
2024-02-02T21:14:56.954Z,52.58
2024-02-02T21:17:46.110Z,41.83
2024-02-02T21:20:33.956Z,47.80
2024-02-02T21:23:18.978Z,33.55
2024-02-02T21:26:01.458Z,40.25
2024-02-02T21:28:44.432Z,41.35
2024-02-02T21:31:26.795Z,39.42
2024-02-02T21:34:09.601Z,44.85
2024-02-02T21:36:52.156Z,60.65
2024-02-02T21:39:37.922Z,32.88
2024-02-02T21:42:20.294Z,44.35
2024-02-02T21:45:02.954Z,45.78
2024-02-02T21:47:45.770Z,96.90
2024-02-02T21:50:28.443Z,159.68
2024-02-02T21:53:14.502Z,105.50
2024-02-02T21:58:39.420Z,70.53
2024-02-02T22:01:22.193Z,76.57
2024-02-02T22:04:05.110Z,61.10
2024-02-02T22:06:47.879Z,67.53
2024-02-02T22:09:31.927Z,66.30
2024-02-02T22:12:15.175Z,60.55
2024-02-02T22:14:58.981Z,80.18
2024-02-02T22:17:41.711Z,53.00
2024-02-02T22:20:23.994Z,43.05
2024-02-02T22:23:06.591Z,35.65
2024-02-02T22:25:48.970Z,36.92
2024-02-02T22:28:31.851Z,30.10
2024-02-02T22:31:18.786Z,24.95
2024-02-02T22:34:01.444Z,27.33
2024-02-02T22:36:43.911Z,25.65
2024-02-02T22:39:26.883Z,28.42
2024-02-02T22:42:09.484Z,31.10
2024-02-02T22:44:52.066Z,26.85
2024-02-02T22:47:34.391Z,27.38
2024-02-02T22:50:17.172Z,25.38
2024-02-02T22:52:59.488Z,26.85
2024-02-02T22:55:42.123Z,26.50
2024-02-02T22:58:25.199Z,31.23
2024-02-02T23:01:11.236Z,23.83
2024-02-02T23:03:53.675Z,18.70
2024-02-02T23:06:36.473Z,20.10
2024-02-02T23:09:18.966Z,15.75
2024-02-02T23:12:01.637Z,15.77
2024-02-02T23:14:44.048Z,13.90
2024-02-02T23:17:26.762Z,12.55
2024-02-02T23:20:10.173Z,17.55
2024-02-02T23:22:53.013Z,13.35
2024-02-02T23:25:35.803Z,14.52
2024-02-02T23:28:18.910Z,16.42
2024-02-02T23:31:02.072Z,12.98
2024-02-02T23:33:44.881Z,17.40
2024-02-02T23:36:27.515Z,14.93
2024-02-02T23:39:10.462Z,15.40
2024-02-02T23:41:52.863Z,19.00
2024-02-02T23:44:36.510Z,13.43
2024-02-02T23:47:18.973Z,16.48
2024-02-02T23:50:01.674Z,16.17
2024-02-02T23:52:44.234Z,13.05
2024-02-02T23:55:26.838Z,15.07
2024-02-02T23:58:09.306Z,19.25
